Time;durP1;ratioP1;P1;durP2;ratioP2;P2;SDS_P1;SDS_P2;PMS_P1;PMS_P2;Temp;Humidity;BMP_temperature;BMP_pressure;BME280_temperature;BME280_humidity;BME280_pressure;Samples;Min_cycle;Max_cycle;Signal;HPM_P1;HPM_P2
2023/06/28 00:00:55;;;;;;;4.18;1.67;;;;;;;24.48;41.24;101881.69;5032457;28;20057;-71
2023/06/28 00:03:20;;;;;;;3.25;1.63;;;;;;;24.39;41.40;101869.47;5027650;28;20071;-70
2023/06/28 00:05:46;;;;;;;1.65;1.13;;;;;;;24.47;41.22;101876.53;5031602;28;20033;-70
2023/06/28 00:08:12;;;;;;;3.40;1.63;;;;;;;24.43;41.59;101881.44;5022134;28;20064;-70
2023/06/28 00:10:37;;;;;;;3.00;1.80;;;;;;;24.43;41.52;101880.59;5024903;28;20166;-71
2023/06/28 00:13:03;;;;;;;3.33;1.73;;;;;;;24.39;41.55;101877.47;5026854;28;20041;-71
2023/06/28 00:15:28;;;;;;;2.20;1.45;;;;;;;24.39;41.52;101880.13;5028198;28;20062;-70
2023/06/28 00:17:54;;;;;;;2.78;1.48;;;;;;;24.37;41.41;101876.81;5028954;28;20056;-71
2023/06/28 00:20:19;;;;;;;3.42;1.70;;;;;;;24.37;41.52;101871.50;5029096;28;20518;-70
2023/06/28 00:22:45;;;;;;;3.20;1.50;;;;;;;24.35;41.75;101876.19;5020945;28;20044;-71
2023/06/28 00:25:10;;;;;;;3.33;1.83;;;;;;;24.33;41.85;101876.38;5027059;28;20045;-71
2023/06/28 00:27:35;;;;;;;2.58;2.00;;;;;;;24.33;41.86;101886.19;5027242;28;20033;-71
2023/06/28 00:30:01;;;;;;;3.65;1.60;;;;;;;24.33;41.75;101889.69;5027025;28;20041;-72
2023/06/28 00:32:27;;;;;;;2.35;1.75;;;;;;;24.29;41.58;101883.06;5027238;28;20491;-72
2023/06/28 00:34:53;;;;;;;3.38;1.83;;;;;;;24.33;41.84;101892.34;5024288;28;20650;-71
2023/06/28 00:37:19;;;;;;;4.80;1.95;;;;;;;24.31;41.86;101894.38;5032872;28;20090;-70
2023/06/28 00:39:45;;;;;;;2.45;1.50;;;;;;;24.29;41.85;101882.25;5023553;28;20033;-69
2023/06/28 00:42:10;;;;;;;2.30;1.60;;;;;;;24.29;41.83;101890.22;5025654;28;20041;-69
2023/06/28 00:44:37;;;;;;;5.22;2.05;;;;;;;24.27;41.94;101890.41;5028719;28;20642;-70
2023/06/28 00:47:06;;;;;;;3.20;1.92;;;;;;;24.25;41.93;101892.41;5038125;28;20026;-70
2023/06/28 00:49:35;;;;;;;2.10;1.67;;;;;;;24.23;42.00;101883.75;5028971;28;20612;-70
2023/06/28 00:52:01;;;;;;;3.92;2.60;;;;;;;24.25;41.89;101886.25;5025495;28;20372;-70
2023/06/28 00:54:27;;;;;;;2.00;1.70;;;;;;;24.23;41.96;101883.75;5027524;28;20046;-69
2023/06/28 00:56:53;;;;;;;2.88;1.55;;;;;;;24.20;42.02;101885.97;5039273;28;20536;-70
2023/06/28 00:59:20;;;;;;;4.00;1.75;;;;;;;24.20;42.27;101893.94;5022246;28;20049;-71
2023/06/28 01:01:48;;;;;;;3.15;2.20;;;;;;;24.17;42.18;101889.81;5027373;28;20046;-71
2023/06/28 01:04:15;;;;;;;5.63;1.83;;;;;;;24.16;42.03;101895.34;5020093;28;20045;-71
2023/06/28 01:06:48;;;;;;;4.28;2.25;;;;;;;24.15;42.23;101886.53;5023585;28;20474;-70
2023/06/28 01:09:15;;;;;;;2.55;1.70;;;;;;;24.13;42.31;101877.91;5021760;28;20045;-71
2023/06/28 01:11:41;;;;;;;3.67;1.80;;;;;;;24.11;42.24;101880.75;5044080;28;20045;-71
2023/06/28 01:14:06;;;;;;;2.28;1.52;;;;;;;24.16;42.08;101890.00;5028145;28;20030;-71
2023/06/28 01:16:33;;;;;;;3.30;1.95;;;;;;;24.10;42.16;101884.41;5026520;28;20048;-71
2023/06/28 01:19:00;;;;;;;2.60;1.80;;;;;;;24.11;42.32;101893.22;5027457;28;20045;-70
2023/06/28 01:21:29;;;;;;;3.60;2.35;;;;;;;24.09;42.29;101882.78;5027630;28;20418;-71
2023/06/28 01:23:56;;;;;;;3.53;1.88;;;;;;;24.10;42.31;101888.91;5044752;28;20045;-71
2023/06/28 01:26:23;;;;;;;2.53;1.67;;;;;;;24.09;42.43;101882.78;5030943;28;20047;-71
2023/06/28 01:28:49;;;;;;;4.90;1.95;;;;;;;24.09;42.30;101880.09;5025432;28;20041;-69
2023/06/28 01:31:15;;;;;;;2.90;1.63;;;;;;;24.09;42.23;101881.94;5031291;28;20491;-69
2023/06/28 01:33:42;;;;;;;3.10;1.63;;;;;;;24.07;42.49;101878.63;5033720;28;20163;-71
2023/06/28 01:36:09;;;;;;;3.20;1.90;;;;;;;24.06;42.38;101877.81;5029471;28;20092;-70
2023/06/28 01:38:39;;;;;;;4.57;1.77;;;;;;;24.05;42.57;101878.78;5028071;28;20041;-71
2023/06/28 01:41:07;;;;;;;2.42;1.60;;;;;;;24.03;42.58;101874.66;5025292;28;20131;-71
2023/06/28 01:43:33;;;;;;;3.38;2.00;;;;;;;24.02;42.49;101873.84;5030352;28;20538;-70
2023/06/28 01:45:59;;;;;;;2.30;1.65;;;;;;;24.02;42.57;101873.00;5032352;28;20127;-71
2023/06/28 01:48:25;;;;;;;2.95;1.80;;;;;;;23.98;42.46;101871.75;5024481;28;20096;-71
2023/06/28 01:50:51;;;;;;;2.33;1.80;;;;;;;24.03;42.63;101880.00;5029557;28;20056;-71
2023/06/28 01:53:17;;;;;;;4.20;2.10;;;;;;;24.03;42.63;101874.66;5055971;28;20037;-71
2023/06/28 01:55:43;;;;;;;4.47;2.10;;;;;;;24.00;42.60;101875.88;5033974;28;20580;-70
2023/06/28 01:58:11;;;;;;;5.30;2.47;;;;;;;23.99;42.73;101878.72;5029744;28;20048;-68
2023/06/28 02:00:37;;;;;;;2.63;1.80;;;;;;;23.99;42.61;101876.88;5033431;28;20559;-70
2023/06/28 02:03:03;;;;;;;2.20;1.60;;;;;;;23.96;42.66;101879.91;5029989;28;20049;-70
2023/06/28 02:05:28;;;;;;;2.80;1.90;;;;;;;23.97;42.67;101883.38;5029112;28;20079;-70
2023/06/28 02:07:54;;;;;;;2.03;1.70;;;;;;;23.94;42.89;101879.25;5020942;28;20033;-70
2023/06/28 02:10:23;;;;;;;4.15;1.75;;;;;;;23.95;42.88;101864.94;5030923;28;20040;-69
2023/06/28 02:12:50;;;;;;;3.55;2.00;;;;;;;23.95;42.75;101874.75;5032164;28;20034;-70
2023/06/28 02:15:16;;;;;;;3.08;1.85;;;;;;;23.94;42.76;101870.47;5026807;28;20671;-69
2023/06/28 02:17:43;;;;;;;3.58;1.75;;;;;;;23.97;42.73;101875.41;5016426;28;20533;-69
2023/06/28 02:20:12;;;;;;;3.28;1.77;;;;;;;23.95;42.66;101866.78;5028609;28;20064;-70
2023/06/28 02:22:39;;;;;;;2.03;1.70;;;;;;;23.91;42.84;101869.00;5035602;28;20039;-68
2023/06/28 02:25:04;;;;;;;3.58;1.90;;;;;;;23.89;42.79;101865.69;5030158;28;20041;-71
2023/06/28 02:27:31;;;;;;;6.22;2.08;;;;;;;23.91;42.80;101863.66;5033467;28;20041;-71
2023/06/28 02:29:56;;;;;;;3.83;2.10;;;;;;;23.92;42.70;101869.81;5030475;28;20037;-72
2023/06/28 02:32:22;;;;;;;2.25;1.92;;;;;;;23.88;42.95;101865.84;5024824;28;20068;-72
2023/06/28 02:34:48;;;;;;;2.65;2.10;;;;;;;23.89;42.69;101855.03;5030351;28;20115;-72
2023/06/28 02:37:14;;;;;;;4.75;2.10;;;;;;;23.89;42.90;101856.88;5030493;28;20045;-72
2023/06/28 02:39:39;;;;;;;3.30;1.88;;;;;;;23.87;42.93;101862.34;5024713;28;20041;-71
2023/06/28 02:42:07;;;;;;;2.97;1.98;;;;;;;23.85;42.79;101856.41;5031685;28;20167;-72
2023/06/28 02:44:36;;;;;;;4.20;2.30;;;;;;;23.77;42.93;101841.34;5035570;28;20123;-71
2023/06/28 02:47:02;;;;;;;2.30;1.90;;;;;;;23.84;42.86;101852.09;5042489;28;20051;-71
2023/06/28 02:49:28;;;;;;;2.92;1.90;;;;;;;23.80;43.02;101846.31;5031136;28;20041;-72
2023/06/28 02:51:53;;;;;;;3.97;2.30;;;;;;;23.84;43.03;101853.91;5023247;28;20034;-72
2023/06/28 02:54:19;;;;;;;3.35;1.90;;;;;;;23.82;42.90;101851.44;5027001;28;20033;-72
2023/06/28 02:56:45;;;;;;;4.03;1.92;;;;;;;23.85;43.01;101853.72;5017105;28;20037;-72
2023/06/28 02:59:30;;;;;;;4.45;2.45;;;;;;;23.80;42.97;101851.63;5031126;28;20444;-72
2023/06/28 03:01:57;;;;;;;4.07;1.92;;;;;;;23.83;42.88;101854.94;5026186;28;20653;-72
2023/06/28 03:04:22;;;;;;;2.20;2.00;;;;;;;23.83;42.96;101854.94;5033040;28;20695;-72
2023/06/28 03:06:49;;;;;;;3.28;1.83;;;;;;;23.80;42.83;101851.63;5026923;28;20561;-72
2023/06/28 03:09:15;;;;;;;3.33;1.77;;;;;;;23.80;42.98;101856.94;5025507;28;20033;-71
2023/06/28 03:11:40;;;;;;;3.40;1.95;;;;;;;23.79;42.81;101849.97;5021915;28;20040;-71
2023/06/28 03:14:06;;;;;;;3.55;1.77;;;;;;;23.78;43.01;101852.81;5022739;28;20083;-70
2023/06/28 03:16:33;;;;;;;3.13;2.03;;;;;;;23.78;42.86;101852.81;5031593;28;20057;-71
2023/06/28 03:18:59;;;;;;;3.85;2.20;;;;;;;23.77;43.08;101859.16;5026150;28;20427;-71
2023/06/28 03:21:24;;;;;;;4.03;2.00;;;;;;;23.78;43.10;101852.81;5059298;28;20048;-71
2023/06/28 03:23:51;;;;;;;4.18;2.00;;;;;;;23.76;43.09;101857.50;5023833;28;20133;-72
2023/06/28 03:26:16;;;;;;;5.18;2.30;;;;;;;23.77;43.04;101859.16;5024644;28;20052;-71
2023/06/28 03:28:42;;;;;;;2.70;1.83;;;;;;;23.75;43.14;101854.00;5025733;28;20029;-71
2023/06/28 03:31:08;;;;;;;3.10;1.88;;;;;;;23.73;43.14;101850.72;5049071;28;20064;-71
2023/06/28 03:33:34;;;;;;;3.75;2.10;;;;;;;23.74;43.02;101851.53;5030342;28;20029;-71
2023/06/28 03:36:00;;;;;;;3.22;2.25;;;;;;;23.71;43.33;101850.06;5021657;28;20033;-70
2023/06/28 03:38:25;;;;;;;2.95;1.90;;;;;;;23.74;42.92;101852.38;5026484;28;20041;-69
2023/06/28 03:40:51;;;;;;;2.45;1.98;;;;;;;23.76;43.09;101846.84;5033565;28;20056;-70
2023/06/28 03:43:17;;;;;;;3.85;1.80;;;;;;;23.74;43.06;101843.56;5026768;28;20099;-69
2023/06/28 03:45:42;;;;;;;4.13;1.80;;;;;;;23.72;43.14;101850.91;5025636;28;21610;-70
2023/06/28 03:48:09;;;;;;;3.92;1.95;;;;;;;23.68;43.17;101838.94;5016782;28;20041;-69
2023/06/28 03:50:35;;;;;;;3.55;2.13;;;;;;;23.72;42.85;101849.06;5028394;28;20069;-70
2023/06/28 03:53:00;;;;;;;2.72;2.00;;;;;;;23.72;43.16;101845.56;5039621;28;20111;-70
2023/06/28 03:55:26;;;;;;;2.60;1.98;;;;;;;23.69;43.04;101841.41;5023043;28;20046;-68
2023/06/28 03:57:51;;;;;;;3.33;1.85;;;;;;;23.70;43.26;101840.44;5030656;28;20044;-71
2023/06/28 04:00:17;;;;;;;3.53;2.22;;;;;;;23.70;43.19;101842.28;5021561;28;20053;-71
2023/06/28 04:02:44;;;;;;;3.08;1.90;;;;;;;23.70;43.15;101844.94;5026417;28;20037;-71
2023/06/28 04:05:10;;;;;;;2.90;2.10;;;;;;;23.70;43.16;101845.75;5023491;28;20048;-70
2023/06/28 04:07:35;;;;;;;3.47;1.95;;;;;;;23.69;43.17;101841.41;5027902;28;20030;-70
2023/06/28 04:10:03;;;;;;;3.45;2.22;;;;;;;23.71;43.08;101841.28;5020335;28;20049;-70
2023/06/28 04:12:28;;;;;;;3.38;2.10;;;;;;;23.69;43.16;101849.41;5025673;28;20060;-70
2023/06/28 04:14:54;;;;;;;2.80;2.13;;;;;;;23.67;43.22;101846.09;5028450;28;20045;-70
2023/06/28 04:17:19;;;;;;;4.15;1.88;;;;;;;23.68;43.25;101846.91;5028294;28;20436;-70
2023/06/28 04:19:45;;;;;;;3.67;2.10;;;;;;;23.59;43.30;101843.53;5027871;28;20068;-71
2023/06/28 04:22:11;;;;;;;3.38;1.90;;;;;;;23.68;43.42;101849.59;5056868;28;20044;-71
2023/06/28 04:24:37;;;;;;;5.70;2.13;;;;;;;23.68;43.24;101845.09;5028702;28;20104;-69
2023/06/28 04:27:03;;;;;;;4.20;2.25;;;;;;;23.70;43.09;101836.97;5024263;28;20037;-70
2023/06/28 04:29:28;;;;;;;3.08;2.08;;;;;;;23.68;43.16;101838.94;5024365;28;20052;-71
2023/06/28 04:31:58;;;;;;;3.75;1.90;;;;;;;23.65;43.37;101850.78;5026184;28;21146;-70
2023/06/28 04:34:24;;;;;;;3.67;2.00;;;;;;;23.66;43.33;101843.63;5027930;28;20041;-71
2023/06/28 04:36:50;;;;;;;2.85;1.88;;;;;;;23.68;43.26;101852.25;5027841;28;20041;-71
2023/06/28 04:39:15;;;;;;;2.97;1.67;;;;;;;23.65;43.17;101834.00;5031513;28;20049;-71
2023/06/28 04:41:41;;;;;;;3.03;2.03;;;;;;;23.67;43.36;101839.94;5037265;28;20045;-71
2023/06/28 04:44:09;;;;;;;6.13;1.95;;;;;;;23.64;43.38;101838.47;5019030;28;20407;-70
2023/06/28 04:46:35;;;;;;;3.13;1.95;;;;;;;23.63;43.34;101841.31;5019848;28;20052;-71
2023/06/28 04:49:01;;;;;;;3.70;1.90;;;;;;;23.62;43.45;101837.84;5032518;28;20045;-70
2023/06/28 04:51:27;;;;;;;2.92;2.05;;;;;;;23.61;43.39;101836.19;5021415;28;20038;-69
2023/06/28 04:53:53;;;;;;;4.38;1.80;;;;;;;23.61;43.25;101830.06;5031302;28;20171;-71
2023/06/28 04:56:18;;;;;;;2.83;1.70;;;;;;;23.60;43.45;101839.84;5027531;28;20114;-70
2023/06/28 04:58:44;;;;;;;3.65;2.15;;;;;;;23.60;43.29;101829.22;5022633;28;21589;-70
2023/06/28 05:01:09;;;;;;;2.97;1.92;;;;;;;23.62;43.35;101831.69;5021661;28;20061;-70
2023/06/28 05:03:38;;;;;;;3.58;2.00;;;;;;;23.59;43.33;101827.56;5022633;28;20037;-70
2023/06/28 05:06:09;;;;;;;1.73;1.60;;;;;;;23.56;43.49;101827.91;5025941;28;20155;-70
2023/06/28 05:08:35;;;;;;;2.67;2.00;;;;;;;23.59;43.44;101827.56;5026439;28;20037;-71
2023/06/28 05:11:04;;;;;;;1.70;1.60;;;;;;;23.60;43.52;101821.25;5026888;28;20037;-71
2023/06/28 05:13:29;;;;;;;4.10;2.38;;;;;;;23.59;43.49;101822.25;5027394;28;20530;-71
2023/06/28 05:15:55;;;;;;;2.67;1.70;;;;;;;23.60;43.48;101823.91;5031429;28;20037;-72
2023/06/28 05:18:21;;;;;;;2.30;1.63;;;;;;;23.60;43.58;101820.41;5027718;28;20041;-70
2023/06/28 05:20:46;;;;;;;3.17;1.92;;;;;;;23.58;43.62;101815.28;5026864;28;20053;-71
2023/06/28 05:23:18;;;;;;;3.50;2.15;;;;;;;23.60;43.68;101817.75;5025667;28;20139;-70
2023/06/28 05:25:45;;;;;;;2.45;1.80;;;;;;;23.57;43.53;101808.31;5027497;28;20113;-70
2023/06/28 05:28:15;;;;;;;3.50;1.80;;;;;;;23.59;43.49;101805.47;5026541;28;20030;-71
2023/06/28 05:30:42;;;;;;;2.97;1.80;;;;;;;23.58;43.64;101811.81;5027725;28;20930;-70
2023/06/28 05:33:09;;;;;;;1.90;1.70;;;;;;;23.59;43.54;101808.97;5023629;28;21866;-71
2023/06/28 05:35:35;;;;;;;2.05;1.70;;;;;;;23.59;43.81;101805.47;5026908;28;20034;-70
2023/06/28 05:38:02;;;;;;;3.75;1.98;;;;;;;23.56;43.84;101808.47;5026863;28;20137;-71
2023/06/28 05:40:28;;;;;;;3.47;2.35;;;;;;;23.55;43.70;101812.97;5027761;28;20053;-71
2023/06/28 05:42:54;;;;;;;3.15;1.73;;;;;;;23.55;43.88;101807.66;5026473;28;20045;-71
2023/06/28 05:45:23;;;;;;;2.95;1.60;;;;;;;23.58;43.65;101809.97;5025968;28;20033;-71
2023/06/28 05:47:49;;;;;;;2.75;1.98;;;;;;;23.59;43.68;101808.97;5022890;28;20507;-71
2023/06/28 05:50:16;;;;;;;1.60;1.50;;;;;;;23.51;43.70;101798.34;5018026;28;20037;-71
2023/06/28 05:52:43;;;;;;;2.42;1.90;;;;;;;23.60;43.66;101804.47;5023814;28;20053;-71
2023/06/28 05:55:09;;;;;;;3.30;1.80;;;;;;;23.60;43.60;101809.78;5022442;28;20092;-71
2023/06/28 05:57:35;;;;;;;2.28;1.80;;;;;;;23.62;43.68;101819.22;5018017;28;20037;-71
2023/06/28 06:00:02;;;;;;;2.92;1.95;;;;;;;23.64;43.81;101819.03;5021677;28;20617;-71
2023/06/28 06:02:30;;;;;;;1.98;1.48;;;;;;;23.65;43.84;101818.03;5020949;28;20052;-71
2023/06/28 06:04:58;;;;;;;3.80;1.63;;;;;;;23.65;43.74;101812.72;5026933;28;20033;-71
2023/06/28 06:07:23;;;;;;;3.38;1.80;;;;;;;23.66;43.66;101815.19;5027068;28;20032;-71
2023/06/28 06:09:49;;;;;;;1.92;1.60;;;;;;;23.62;44.03;101813.91;5024506;28;20038;-71
2023/06/28 06:12:14;;;;;;;4.13;1.73;;;;;;;23.65;43.87;101824.19;5024826;28;20041;-71
2023/06/28 06:14:40;;;;;;;2.20;1.70;;;;;;;23.65;43.83;101815.38;5030443;28;20499;-71
2023/06/28 06:17:05;;;;;;;2.13;1.60;;;;;;;23.62;43.90;101811.25;5023996;28;20060;-71
2023/06/28 06:19:31;;;;;;;2.28;1.90;;;;;;;23.66;43.84;101815.19;5022688;28;20037;-70
2023/06/28 06:21:56;;;;;;;2.60;2.20;;;;;;;23.67;43.69;101821.34;5027599;28;20049;-71
2023/06/28 06:24:22;;;;;;;3.10;1.70;;;;;;;23.66;43.87;101827.66;5028472;28;20045;-70
2023/06/28 06:26:48;;;;;;;2.17;1.65;;;;;;;23.65;43.87;101824.19;5040869;28;20088;-71
2023/06/28 06:29:13;;;;;;;2.40;1.73;;;;;;;23.64;43.67;101819.88;5036299;28;20071;-71
2023/06/28 06:31:38;;;;;;;3.53;1.90;;;;;;;23.67;43.78;101829.31;5028188;28;20038;-71
2023/06/28 06:34:04;;;;;;;2.47;1.65;;;;;;;23.62;43.82;101811.25;5032227;28;20045;-70
2023/06/28 06:36:30;;;;;;;4.18;1.80;;;;;;;23.66;43.77;101825.84;5029408;28;20715;-71
2023/06/28 06:38:57;;;;;;;4.13;1.98;;;;;;;23.66;43.79;101825.84;5027241;28;20119;-71
2023/06/28 06:41:22;;;;;;;2.60;1.58;;;;;;;23.67;43.64;101827.47;5027076;28;20137;-71
2023/06/28 06:43:49;;;;;;;2.55;1.70;;;;;;;23.68;43.84;101828.31;5033127;28;20068;-70
2023/06/28 06:46:15;;;;;;;4.40;2.30;;;;;;;23.66;43.91;101833.81;5029860;28;20123;-70
2023/06/28 06:48:43;;;;;;;3.97;1.85;;;;;;;23.68;43.86;101836.28;5033938;28;20037;-70
2023/06/28 06:51:09;;;;;;;2.72;1.90;;;;;;;23.68;43.96;101833.63;5028282;28;20037;-70
2023/06/28 06:53:34;;;;;;;5.20;2.03;;;;;;;23.68;43.86;101836.28;5018486;28;20525;-71
2023/06/28 06:56:00;;;;;;;4.35;1.90;;;;;;;23.68;43.88;101831.78;5029775;28;20041;-71
2023/06/28 06:58:28;;;;;;;3.47;1.73;;;;;;;23.68;43.87;101836.28;5025116;28;20274;-70
2023/06/28 07:00:53;;;;;;;3.08;1.95;;;;;;;23.71;44.05;101841.28;5028807;28;20442;-67
2023/06/28 07:03:19;;;;;;;4.25;1.80;;;;;;;23.57;44.47;101834.91;5025406;28;20045;-69
2023/06/28 07:05:44;;;;;;;6.07;1.90;;;;;;;23.64;44.45;101837.66;5026117;28;20124;-68
2023/06/28 07:08:10;;;;;;;3.72;1.90;;;;;;;23.64;44.10;101849.13;5025218;28;20046;-68
2023/06/28 07:10:35;;;;;;;3.65;1.92;;;;;;;23.65;44.10;101840.13;5029708;28;20104;-69
2023/06/28 07:13:02;;;;;;;1.65;1.52;;;;;;;23.68;44.22;101852.25;5027391;28;20456;-70
2023/06/28 07:15:27;;;;;;;4.22;2.10;;;;;;;23.67;44.17;101843.44;5025230;28;20153;-71
2023/06/28 07:17:53;;;;;;;2.63;1.60;;;;;;;23.67;44.06;101848.75;5020597;28;20042;-70
2023/06/28 07:20:20;;;;;;;6.93;2.08;;;;;;;23.65;44.02;101845.44;5024884;28;20100;-71
2023/06/28 07:22:45;;;;;;;4.43;2.00;;;;;;;23.67;44.02;101850.59;5031103;28;20033;-70
2023/06/28 07:25:11;;;;;;;3.58;1.98;;;;;;;23.67;44.12;101855.91;5035390;28;20617;-71
2023/06/28 07:27:37;;;;;;;3.78;2.08;;;;;;;23.66;44.06;101859.56;5028560;28;20037;-71
2023/06/28 07:30:03;;;;;;;4.35;2.15;;;;;;;23.66;44.15;101855.09;5031296;28;20045;-71
2023/06/28 07:32:28;;;;;;;5.57;2.40;;;;;;;23.63;44.65;101850.13;5026900;28;20429;-70
2023/06/28 07:34:54;;;;;;;5.25;2.75;;;;;;;23.60;44.67;101853.16;5027602;28;20048;-69
2023/06/28 07:37:21;;;;;;;3.90;2.13;;;;;;;23.64;44.75;101858.94;5027479;28;20030;-69
2023/06/28 07:39:47;;;;;;;5.18;2.55;;;;;;;23.64;44.65;101865.06;5025108;28;20144;-69
2023/06/28 07:42:13;;;;;;;5.43;2.35;;;;;;;23.63;44.80;101860.75;5029286;28;20933;-69
2023/06/28 07:44:39;;;;;;;4.20;2.45;;;;;;;23.61;45.14;101857.47;5022215;28;20034;-68
2023/06/28 07:47:04;;;;;;;3.40;2.03;;;;;;;23.62;45.20;101855.63;5025120;28;20400;-69
2023/06/28 07:49:30;;;;;;;5.45;2.00;;;;;;;23.64;45.29;101856.28;5021278;28;20184;-70
2023/06/28 07:51:55;;;;;;;5.50;2.20;;;;;;;23.63;45.03;101851.97;5024377;28;20539;-70
2023/06/28 07:54:23;;;;;;;3.58;2.10;;;;;;;23.60;45.28;101861.13;5054384;28;20142;-69
2023/06/28 07:56:49;;;;;;;4.03;2.38;;;;;;;23.60;45.54;101857.66;5028014;28;20045;-68
2023/06/28 07:59:14;;;;;;;6.82;2.22;;;;;;;23.59;45.46;101853.34;5024298;28;20068;-69
2023/06/28 08:01:40;;;;;;;4.30;2.30;;;;;;;23.57;45.62;101848.19;5017476;28;20049;-68
2023/06/28 08:04:05;;;;;;;5.43;2.50;;;;;;;23.56;45.73;101857.16;5026388;28;20041;-69
2023/06/28 08:06:31;;;;;;;6.22;2.80;;;;;;;23.58;45.59;101860.50;5025519;28;20041;-69
2023/06/28 08:08:56;;;;;;;4.90;2.45;;;;;;;23.57;45.46;101850.84;5026743;28;20155;-69
2023/06/28 08:11:22;;;;;;;4.50;2.28;;;;;;;23.59;45.81;101854.16;5022572;28;20063;-67
2023/06/28 08:13:50;;;;;;;5.80;2.30;;;;;;;23.56;45.89;101848.34;5028481;28;20041;-69
2023/06/28 08:16:16;;;;;;;5.97;2.83;;;;;;;23.58;45.83;101857.00;5021899;28;20056;-69
2023/06/28 08:18:41;;;;;;;5.78;2.53;;;;;;;23.60;45.86;101847.84;5027761;28;20061;-68
2023/06/28 08:21:07;;;;;;;3.90;2.13;;;;;;;23.60;45.86;101850.50;5021395;28;20731;-69
2023/06/28 08:23:33;;;;;;;5.10;2.17;;;;;;;23.62;45.91;101851.13;5027491;28;20048;-69
2023/06/28 08:25:58;;;;;;;5.90;2.30;;;;;;;23.61;45.91;101852.16;5024216;28;20045;-69
2023/06/28 08:28:24;;;;;;;4.32;2.30;;;;;;;23.61;45.92;101856.63;5024043;28;20034;-68
2023/06/28 08:30:49;;;;;;;5.70;2.20;;;;;;;23.63;46.46;101850.13;5020996;28;20045;-69
2023/06/28 08:33:15;;;;;;;5.20;2.45;;;;;;;23.61;46.25;101848.66;5019122;28;20045;-68
2023/06/28 08:35:40;;;;;;;5.10;2.20;;;;;;;23.61;46.35;101844.16;5022001;28;20399;-68
2023/06/28 08:38:06;;;;;;;3.65;2.15;;;;;;;23.62;46.25;101843.16;5017012;28;20045;-69
2023/06/28 08:40:32;;;;;;;2.72;2.03;;;;;;;23.67;46.34;101845.28;5026056;28;20042;-67
2023/06/28 08:43:01;;;;;;;6.75;2.35;;;;;;;23.56;46.81;101843.03;5021945;28;20045;-69
2023/06/28 08:45:30;;;;;;;3.95;2.30;;;;;;;23.43;47.13;101844.47;5022281;28;20640;-68
2023/06/28 08:47:56;;;;;;;4.25;2.65;;;;;;;23.39;47.66;101842.34;5020041;28;20037;-70
2023/06/28 08:50:23;;;;;;;5.35;2.47;;;;;;;23.34;47.82;101842.03;5023092;28;20037;-70
2023/06/28 08:52:50;;;;;;;6.57;2.65;;;;;;;23.36;47.87;101845.38;5028698;28;20049;-68
2023/06/28 08:55:16;;;;;;;4.88;2.40;;;;;;;23.35;47.96;101847.19;5024180;28;20037;-69
2023/06/28 08:57:43;;;;;;;5.97;2.83;;;;;;;23.32;47.96;101841.38;5026635;28;20063;-69
2023/06/28 09:00:12;;;;;;;3.20;2.30;;;;;;;23.27;48.26;101847.25;5030350;28;20115;-69
2023/06/28 09:02:41;;;;;;;5.43;2.25;;;;;;;23.28;48.40;101848.06;5027578;28;20550;-69
2023/06/28 09:05:08;;;;;;;5.97;2.30;;;;;;;23.18;48.30;101840.34;5025660;28;20032;-69
2023/06/28 09:07:37;;;;;;;5.97;2.50;;;;;;;23.27;48.52;101849.91;5023104;28;20471;-68
2023/06/28 09:10:03;;;;;;;7.28;2.90;;;;;;;23.26;48.47;101850.91;5019203;28;20459;-69
2023/06/28 09:12:29;;;;;;;4.22;2.67;;;;;;;23.25;48.52;101851.91;5024740;28;20045;-69
2023/06/28 09:14:55;;;;;;;4.55;2.28;;;;;;;23.23;48.47;101853.94;5024547;28;20049;-69
2023/06/28 09:17:21;;;;;;;3.50;2.72;;;;;;;23.23;48.57;101853.09;5021694;28;20045;-70
2023/06/28 09:19:47;;;;;;;5.18;2.38;;;;;;;23.22;48.49;101854.94;5028790;28;20057;-70
2023/06/28 09:22:12;;;;;;;6.63;2.78;;;;;;;23.22;48.57;101849.63;5023583;28;20423;-69
2023/06/28 09:24:38;;;;;;;4.07;2.55;;;;;;;23.22;48.77;101852.28;5019557;28;20044;-70
2023/06/28 09:27:05;;;;;;;3.38;2.33;;;;;;;23.20;48.88;101846.31;5022664;28;20510;-70
2023/06/28 09:29:31;;;;;;;4.90;2.53;;;;;;;23.19;48.85;101850.81;5024952;28;20033;-70
2023/06/28 09:31:57;;;;;;;4.72;2.78;;;;;;;23.18;49.01;101848.31;5025526;28;20045;-70
2023/06/28 09:34:24;;;;;;;3.20;2.65;;;;;;;23.17;49.18;101841.38;5024470;28;20048;-70
2023/06/28 09:36:57;;;;;;;5.10;2.75;;;;;;;23.16;48.85;101845.00;5026083;28;20056;-69
2023/06/28 09:39:24;;;;;;;2.72;2.10;;;;;;;23.16;48.97;101847.66;5028342;28;20041;-70
2023/06/28 09:41:50;;;;;;;5.45;2.92;;;;;;;23.18;48.71;101845.66;5026067;28;20038;-70
2023/06/28 09:44:33;;;;;;;4.32;2.60;;;;;;;23.07;48.95;101828.31;5028152;28;20049;-69
2023/06/28 09:47:04;;;;;;;3.80;2.70;;;;;;;23.14;49.08;101845.16;5033287;28;20045;-69
2023/06/28 09:49:29;;;;;;;4.15;2.90;;;;;;;23.14;49.09;101850.47;5038582;28;20813;-69
2023/06/28 09:51:57;;;;;;;4.63;2.83;;;;;;;23.12;49.17;101849.84;5028961;28;20041;-70
2023/06/28 09:54:34;;;;;;;4.88;2.58;;;;;;;23.10;49.10;101835.09;5030209;28;20045;-69
2023/06/28 09:57:01;;;;;;;2.97;2.53;;;;;;;23.12;48.91;101847.19;5030895;28;20064;-69
2023/06/28 09:59:30;;;;;;;4.43;2.83;;;;;;;23.11;49.18;101853.50;5029009;28;20069;-70
2023/06/28 10:01:58;;;;;;;4.68;2.67;;;;;;;23.11;49.04;101852.69;5030460;28;20037;-69
2023/06/28 10:04:27;;;;;;;5.95;2.90;;;;;;;23.11;49.29;101853.50;5028101;28;20064;-69
2023/06/28 10:06:58;;;;;;;4.53;2.58;;;;;;;23.09;49.26;101844.06;5028435;28;20041;-70
2023/06/28 10:09:25;;;;;;;4.95;2.75;;;;;;;23.10;49.17;101848.38;5026328;28;20042;-69
2023/06/28 10:11:52;;;;;;;3.05;2.72;;;;;;;23.09;49.25;101855.50;5031761;28;20131;-69
2023/06/28 10:14:20;;;;;;;5.60;3.08;;;;;;;23.10;49.30;101846.53;5027679;28;20041;-68
2023/06/28 10:16:46;;;;;;;7.88;3.20;;;;;;;23.06;48.92;101844.41;5031739;28;20041;-69
2023/06/28 10:19:12;;;;;;;3.70;2.80;;;;;;;23.09;49.37;101852.03;5031084;28;20479;-68
2023/06/28 10:21:39;;;;;;;3.50;2.88;;;;;;;23.07;49.33;101846.06;5032077;28;20045;-69
2023/06/28 10:24:06;;;;;;;5.43;3.22;;;;;;;23.05;49.52;101850.72;5030772;28;20120;-68
2023/06/28 10:26:33;;;;;;;5.43;3.35;;;;;;;23.04;49.81;101841.94;5024918;28;20045;-70
2023/06/28 10:28:58;;;;;;;5.10;3.25;;;;;;;23.06;49.56;101842.59;5028164;28;20086;-70
2023/06/28 10:31:24;;;;;;;5.85;3.40;;;;;;;23.01;49.58;101839.63;5030697;28;20033;-69
2023/06/28 10:33:50;;;;;;;6.30;3.45;;;;;;;23.05;49.51;101853.38;5028451;28;20028;-70
2023/06/28 10:36:16;;;;;;;5.32;3.40;;;;;;;23.04;49.95;101846.44;5026362;28;20048;-70
2023/06/28 10:38:43;;;;;;;5.20;3.30;;;;;;;23.00;49.75;101847.78;5026726;28;20452;-70
2023/06/28 10:41:12;;;;;;;6.05;3.55;;;;;;;23.01;50.04;101846.78;5025323;28;20669;-70
2023/06/28 10:43:38;;;;;;;6.45;3.60;;;;;;;23.04;50.01;101844.59;5026939;28;20048;-70
2023/06/28 10:46:21;;;;;;;4.68;3.30;;;;;;;23.03;49.81;101847.44;5025077;28;20046;-70
2023/06/28 10:48:46;;;;;;;5.40;3.25;;;;;;;23.03;49.66;101853.56;5028581;28;20156;-69
2023/06/28 10:51:14;;;;;;;4.95;3.38;;;;;;;23.00;50.04;101842.47;5024146;28;20291;-70
2023/06/28 10:53:51;;;;;;;4.88;3.45;;;;;;;22.97;50.07;101843.63;5026933;28;20029;-70
2023/06/28 10:56:19;;;;;;;6.75;3.78;;;;;;;22.98;50.02;101845.31;5023315;28;20130;-70
2023/06/28 10:58:47;;;;;;;6.43;3.70;;;;;;;22.96;50.01;101846.47;5024380;28;20038;-69
2023/06/28 11:01:53;;;;;;;6.35;3.28;;;;;;;23.00;49.83;101855.75;5026339;28;20117;-69
2023/06/28 11:04:21;;;;;;;10.30;4.32;;;;;;;23.00;49.90;101850.44;4985502;28;20125;-69
2023/06/28 11:06:47;;;;;;;8.27;4.63;;;;;;;22.96;50.08;101844.63;4994319;28;20042;-68
2023/06/28 11:09:15;;;;;;;6.43;3.67;;;;;;;22.97;50.08;101856.91;5002954;28;20106;-69
2023/06/28 11:11:48;;;;;;;5.75;3.60;;;;;;;23.00;49.74;101858.41;5024274;28;20100;-69
2023/06/28 11:14:19;;;;;;;7.28;3.92;;;;;;;23.02;49.59;101854.56;5031627;28;20117;-71
2023/06/28 11:16:47;;;;;;;8.00;3.63;;;;;;;23.01;49.99;101852.94;5029539;28;20037;-71
2023/06/28 11:19:14;;;;;;;8.82;4.05;;;;;;;23.00;50.18;101851.28;5022451;28;20041;-69
2023/06/28 11:21:40;;;;;;;6.65;3.63;;;;;;;23.00;49.84;101845.97;5027256;28;20479;-69